Time,TemperatureF,DewpointF,PressureIn,WindDirection,WindDirectionDegrees,WindSpeedMPH,WindSpeedGustMPH,Humidity,HourlyPrecipIn,Conditions,Clouds,dailyrainin,SolarRadiationWatts/m^2,SoftwareType,DateUTC
2013-09-17 00:12:00,66.0,63.0,30.17,NNW,329,3.0,6.0,90,-99.99,,,-99.99,0.000000,,2013-09-17 06:12:00,
2013-09-17 02:12:00,67.0,62.0,30.17,WNW,299,3.0,5.0,83,-99.99,,,-99.99,0.000000,,2013-09-17 08:12:00,
2013-09-17 02:52:00,66.0,62.0,30.16,West,273,4.0,7.0,86,-99.99,,,-99.99,0.000000,,2013-09-17 08:52:00,
2013-09-17 03:02:00,66.0,62.0,30.16,West,273,4.0,7.0,86,-99.99,,,-99.99,0.000000,,2013-09-17 09:02:00,
2013-09-17 03:42:00,66.0,61.0,30.16,WNW,293,2.0,3.0,86,-99.99,,,-99.99,0.000000,,2013-09-17 09:42:00,
2013-09-17 04:42:00,66.0,60.0,30.15,West,281,2.0,3.0,82,-99.99,,,-99.99,0.000000,,2013-09-17 10:42:00,
2013-09-17 04:53:00,67.0,60.0,30.15,West,275,2.0,4.0,79,-99.99,,,-99.99,0.000000,,2013-09-17 10:53:00,
2013-09-17 05:11:00,68.0,60.0,30.15,SSE,165,2.0,4.0,76,-99.99,,,-99.99,0.000000,,2013-09-17 11:11:00,
2013-09-17 05:52:00,68.0,61.0,30.15,SE,125,2.0,5.0,79,-99.99,,,-99.99,0.000000,,2013-09-17 11:52:00,
2013-09-17 06:12:00,68.0,61.0,30.15,SE,144,2.0,3.0,79,-99.99,,,-99.99,0.000000,,2013-09-17 12:12:00,
2013-09-17 06:42:00,67.0,61.0,30.16,SW,223,3.0,5.0,81,-99.99,,,-99.99,0.000000,,2013-09-17 12:42:00,
2013-09-17 06:52:00,66.0,61.0,30.16,West,260,5.0,5.0,85,-99.99,,,-99.99,0.000000,,2013-09-17 12:52:00,
2013-09-17 07:02:00,66.0,61.0,30.16,West,260,5.0,5.0,85,-99.99,,,-99.99,0.000000,,2013-09-17 13:02:00,
2013-09-17 07:42:00,67.0,61.0,30.17,WSW,238,3.0,5.0,82,-99.99,,,-99.99,13.950000,,2013-09-17 13:42:00,
2013-09-17 08:42:00,68.0,62.0,30.18,SW,222,2.0,3.0,80,-99.99,,,-99.99,87.169998,,2013-09-17 14:42:00,
2013-09-17 08:52:00,68.0,62.0,30.18,SSW,213,2.0,3.0,82,-99.99,,,-99.99,46.020000,,2013-09-17 14:52:00,
2013-09-17 09:02:00,68.0,62.0,30.18,SSW,213,2.0,3.0,82,-99.99,,,-99.99,46.020000,,2013-09-17 15:02:00,
2013-09-17 09:53:00,73.0,62.0,30.19,South,184,2.0,5.0,69,-99.99,,,-99.99,465.820007,,2013-09-17 15:53:00,
2013-09-17 10:13:00,73.0,62.0,30.19,South,175,3.0,6.0,68,-99.99,,,-99.99,483.950012,,2013-09-17 16:13:00,
2013-09-17 10:23:00,74.0,62.0,30.19,SSE,149,4.0,8.0,67,-99.99,,,-99.99,510.450012,,2013-09-17 16:23:00,
2013-09-17 10:32:00,74.0,62.0,30.19,SSE,149,4.0,8.0,67,-99.99,,,-99.99,510.450012,,2013-09-17 16:32:00,
2013-09-17 10:54:00,75.0,62.0,30.19,ESE,120,8.0,15.0,64,-99.99,,,-99.99,543.919983,,2013-09-17 16:54:00,
2013-09-17 11:03:00,75.0,62.0,30.19,ESE,120,8.0,15.0,64,-99.99,,,-99.99,543.919983,,2013-09-17 17:03:00,
2013-09-17 11:43:00,75.0,62.0,30.17,SE,145,5.0,12.0,63,-99.99,,,-99.99,320.079987,,2013-09-17 17:43:00,
2013-09-17 11:53:00,75.0,62.0,30.17,SSE,159,5.0,9.0,63,-99.99,,,-99.99,215.479996,,2013-09-17 17:53:00,
2013-09-17 12:02:00,75.0,62.0,30.17,SSE,159,5.0,9.0,63,-99.99,,,-99.99,215.479996,,2013-09-17 18:02:00,
2013-09-17 13:12:00,79.0,61.0,30.14,South,180,4.0,13.0,55,-99.99,,,-99.99,552.989990,,2013-09-17 19:12:00,
2013-09-17 13:42:00,78.0,61.0,30.13,SE,145,4.0,8.0,57,-99.99,,,-99.99,285.910004,,2013-09-17 19:42:00,
2013-09-17 14:42:00,81.0,61.0,30.09,South,172,6.0,14.0,50,-99.99,,,-99.99,762.190002,,2013-09-17 20:42:00,
2013-09-17 15:22:00,81.0,60.0,30.07,SSE,151,5.0,10.0,49,-99.99,,,-99.99,497.200012,,2013-09-17 21:22:00,
2013-09-17 15:44:00,82.0,60.0,30.06,SSE,158,5.0,11.0,48,-99.99,,,-99.99,671.530029,,2013-09-17 21:44:00,
2013-09-17 16:43:00,83.0,60.0,30.04,SE,125,4.0,9.0,46,-99.99,,,-99.99,534.849976,,2013-09-17 22:43:00,
2013-09-17 17:52:00,83.0,61.0,30.03,ESE,105,8.0,13.0,48,-99.99,,,-99.99,372.380005,,2013-09-17 23:52:00,
2013-09-17 18:11:00,81.0,61.0,30.03,ESE,114,6.0,8.0,50,-99.99,,,-99.99,105.989998,,2013-09-18 00:11:00,
2013-09-17 18:42:00,81.0,61.0,30.02,SE,127,6.0,10.0,50,-99.99,,,-99.99,80.190002,,2013-09-18 00:42:00,
2013-09-17 19:42:00,77.0,63.0,30.02,ESE,116,6.0,8.0,61,-99.99,,,-99.99,4.880000,,2013-09-18 01:42:00,
2013-09-17 19:53:00,76.0,62.0,30.03,ESE,113,6.0,8.0,61,-99.99,,,-99.99,0.700000,,2013-09-18 01:53:00,
2013-09-17 20:11:00,76.0,63.0,30.03,ESE,117,6.0,8.0,63,-99.99,,,-99.99,0.000000,,2013-09-18 02:11:00,
2013-09-17 21:44:00,74.0,63.0,30.05,SE,124,6.0,11.0,69,-99.99,,,-99.99,0.000000,,2013-09-18 03:44:00,
2013-09-17 21:55:00,74.0,63.0,30.06,SE,129,6.0,9.0,68,-99.99,,,-99.99,0.000000,,2013-09-18 03:55:00,
2013-09-17 22:04:00,74.0,63.0,30.06,SE,129,6.0,9.0,68,-99.99,,,-99.99,0.000000,,2013-09-18 04:04:00,
2013-09-17 22:44:00,72.0,62.0,30.07,SSE,151,4.0,6.0,69,-99.99,,,-99.99,0.000000,,2013-09-18 04:44:00,
2013-09-17 22:54:00,72.0,62.0,30.07,SSE,151,4.0,6.0,69,-99.99,,,-99.99,0.000000,,2013-09-18 04:54:00,
2013-09-17 23:04:00,72.0,62.0,30.07,SSE,151,4.0,6.0,69,-99.99,,,-99.99,0.000000,,2013-09-18 05:04:00,
2013-09-17 23:43:00,72.0,63.0,30.08,SW,223,1.0,4.0,74,-99.99,,,-99.99,0.000000,,2013-09-18 05:43:00,
2013-09-17 23:53:00,71.0,63.0,30.08,South,190,1.0,6.0,74,-99.99,,,-99.99,0.000000,,2013-09-18 05:53:00,